Flight Track Log - Related Links

Times and Time Zones

All times are in EDT time to prevent confusion due to time zone crossing. See the EJA839 flight status page for this flight to view local times or setup timezone preferences in your user account.

Time Position Orientation Groundspeed Altitude Reporting Facility
EDT Latitude Longitude Course Direction KTS MPH feet Rate Location/Type
Tue 05:58:00 PM 40.8333 -74.1000 255° West 182 209 1,600  Level New York TRACON
Tue 05:59:00 PM 40.8167 -74.1833 255° West 194 223 1,800 1,500 Climbing New York TRACON
Tue 06:00:00 PM 40.8167 -74.2500 270° West 205 236 4,600 2,545 Climbing New York TRACON
Tue 06:02:18 PM 40.8331 -74.4625 276° West 276 318 10,200 2,606 Climbing New York Center
Tue 06:03:18 PM 40.8294 -74.5803 268° West 287 330 13,200 2,750 Climbing New York Center
Tue 06:04:18 PM 40.8242 -74.6733 266° West 294 338 15,700 2,550 Climbing New York Center
Tue 06:05:18 PM 40.8181 -74.7936 266° West 292 336 18,300 2,350 Climbing New York Center
Tue 06:06:18 PM 40.8144 -74.9003 267° West 292 336 20,400 2,033 Climbing New York Center
Tue 06:07:19 PM 40.7942 -75.0031 255° West 297 342 22,400 1,967 Climbing New York Center
Tue 06:08:20 PM 40.7633 -75.1056 248° West 302 348 24,400 1,934 Climbing New York Center
Tue 06:09:20 PM 40.7281 -75.2100 246° West 312 359 26,300 1,835 Climbing New York Center
Tue 06:10:21 PM 40.6931 -75.3117 246° West 307 353 28,100 1,780 Climbing New York Center
Tue 06:11:18 PM 40.6600 -75.4108 246° West 307 353 29,800 1,765 Climbing New York Center
Tue 06:12:20 PM 40.6289 -75.5097 248° West 300 345 31,600 1,721 Climbing New York Center
Tue 06:13:20 PM 40.5958 -75.6058 246° West 300 345 33,300 1,627 Climbing New York Center
Tue 06:14:18 PM 40.5647 -75.7022 247° West 289 333 34,800 1,322 Climbing New York Center
Tue 06:15:18 PM 40.5336 -75.7983 247° West 289 333 35,900 590 Climbing New York Center
Tue 06:16:20 PM 40.4981 -75.9019 246° West 300 345 36,000 50 Climbing New York Center
Tue 06:17:18 PM 40.4533 -76.0189 243° Southwest 334 384 36,000  Level New York Center
Tue 06:18:18 PM 40.4122 -76.1439 247° West 355 409 36,000  Level New York Center
Tue 06:19:19 PM 40.3753 -76.2689 249° West 374 430 36,000  Level New York Center
Tue 06:20:20 PM 40.3439 -76.4000 253° West 379 436 36,000  Level New York Center
Tue 06:21:20 PM 40.3147 -76.5308 254° West 379 436 36,000  Level New York Center
Tue 06:22:20 PM 40.2856 -76.6564 253° West 374 430 36,000  Level New York Center
Tue 06:23:18 PM 40.2544 -76.7817 252° West 367 422 36,000  Level New York Center
Tue 06:24:19 PM 40.2250 -76.9042 253° West 362 417 36,000  Level New York Center
Tue 06:25:19 PM 40.1947 -77.0428 254° West 362 417 36,000  Level New York Center
Tue 06:26:20 PM 40.1639 -77.1514 250° West 362 417 36,000  Level New York Center
Tue 06:27:20 PM 40.1336 -77.2900 254° West 357 411 36,000  Level New York Center
Tue 06:28:18 PM 40.1264 -77.4169 266° West 357 411 36,000  Level New York Center
Tue 06:29:19 PM 40.1253 -77.5472 269° West 357 411 36,000  Level New York Center
Tue 06:31:44 PM 40.1219 -77.8544 269° West 356 410 36,000  Level Cleveland Center
Tue 06:32:44 PM 40.1147 -77.9850 266° West 362 417 36,000  Level Cleveland Center
Tue 06:33:44 PM 40.1114 -78.1156 268° West 362 417 36,000 -450 Level Cleveland Center
Tue 06:34:44 PM 40.1058 -78.2458 267° West 367 422 35,100 -1,200 Descending Cleveland Center
Tue 06:35:44 PM 40.0981 -78.3819 266° West 367 422 33,600 -1,050 Descending Cleveland Center
Tue 06:36:44 PM 40.0903 -78.5206 266° West 373 429 33,000 -550 Descending Cleveland Center
Tue 06:37:44 PM 40.0986 -78.6506 275° West 368 423 32,500 -1,250 Descending Cleveland Center
Tue 06:38:44 PM 40.1031 -78.7917 272° West 373 429 30,500 -2,000 Descending Cleveland Center
Tue 06:39:44 PM 40.0989 -78.9328 268° West 384 442 28,500 -1,250 Descending Cleveland Center
Tue 06:40:44 PM 40.0989 -79.0742 270° West 384 442 28,000 -250 Descending Cleveland Center
Tue 06:41:44 PM 40.0986 -79.2097 270° West 384 442 28,000 -1,050 Level Cleveland Center
Tue 06:42:44 PM 40.0961 -79.3617 269° West 384 442 25,900 -1,950 Descending Cleveland Center
Tue 06:43:44 PM 40.0911 -79.4922 267° West 378 435 24,100 -950 Descending Cleveland Center
Tue 06:44:44 PM 40.0778 -79.6144 262° West 365 420 24,000 -300 Descending Cleveland Center
Tue 06:45:44 PM 40.0536 -79.7342 255° West 358 412 23,500 -1,450 Descending Cleveland Center
Tue 06:46:44 PM 40.0272 -79.8483 253° West 341 392 21,100 -1,750 Descending Cleveland Center
Tue 06:47:44 PM 40.0072 -79.9650 257° West 336 387 20,000 -550 Descending Cleveland Center
Tue 06:48:44 PM 39.9828 -80.0736 254° West 326 375 20,000  Level Cleveland Center
Tue 06:49:44 PM 39.9581 -80.1742 252° West 310 357 20,000 -750 Level Cleveland Center
Tue 06:50:44 PM 39.9292 -80.2825 251° West 305 351 18,500 -1,800 Descending Cleveland Center
Tue 06:51:44 PM 39.8981 -80.4017 251° West 325 374 16,400 -1,800 Descending Cleveland Center
Tue 06:52:44 PM 39.8753 -80.5019 254° West 325 374 14,900 -1,350 Descending Cleveland Center
Tue 06:53:44 PM 39.8483 -80.6156 253° West 330 380 13,700 -1,100 Descending Cleveland Center
Tue 06:54:44 PM 39.8253 -80.7236 255° West 325 374 12,700 -761 Descending Cleveland Center
Tue 06:56:06 PM 39.8122 -80.8889 264° West 313 360 11,900 -250 Descending Indianapolis Center
Tue 06:57:08 PM 39.8192 -80.9953 275° West 297 342 12,100 97 Climbing Indianapolis Center
Tue 06:58:10 PM 39.8281 -81.0994 276° West 293 337 12,100  Level Indianapolis Center
Tue 06:59:12 PM 39.8375 -81.2050 277° West 294 338 12,100  Level Indianapolis Center
Tue 07:00:14 PM 39.8467 -81.3092 277° West 291 335 12,100  Level Indianapolis Center
Tue 07:01:16 PM 39.8589 -81.4256 278° West 276 318 12,100  Level Indianapolis Center
Tue 07:02:18 PM 39.8697 -81.5206 278° West 269 310 12,100  Level Indianapolis Center
Tue 07:03:20 PM 39.8794 -81.6197 277° West 273 314 12,100  Level Indianapolis Center
Tue 07:04:22 PM 39.8803 -81.7194 271° West 273 314 12,100 -48 Level Indianapolis Center
Tue 07:05:24 PM 39.8719 -81.8200 264° West 277 319 12,000 -298 Descending Indianapolis Center
Tue 07:06:23 PM 39.8858 -81.9211 280° West 286 329 11,500 -968 Descending Indianapolis Center
Tue 07:07:28 PM 39.9347 -81.9850 315° West 280 322 10,000 -709 Descending Indianapolis Center
Tue 07:08:30 PM 39.9564 -82.0917 285° West 258 297 10,000 -339 Level Indianapolis Center
Tue 07:09:32 PM 39.9592 -82.1981 272° West 286 329 9,300 -1,597 Descending Indianapolis Center
Tue 07:10:34 PM 39.9717 -82.2808 281° West 262 302 6,700 -1,694 Descending Indianapolis Center
Tue 07:11:36 PM 40.0039 -82.3475 302° West 224 258 5,800 -1,306 Descending Indianapolis Center
Tue 07:12:38 PM 40.0025 -82.4219 269° West 206 237 4,000 -871 Descending Indianapolis Center
Tue 07:13:40 PM 40.0011 -82.4964 269° West 204 235 4,000  Level Indianapolis Center
Tue 07:14:42 PM 39.9992 -82.5731 268° West 208 239 4,000 -484 Level Indianapolis Center
Tue 07:15:44 PM 39.9975 -82.6656 269° West 213 245 3,000 -581 Descending Indianapolis Center
Tue 07:16:46 PM 39.9956 -82.7461 268° West 219 252 2,800 -387 Descending Indianapolis Center
Tue 07:17:48 PM 39.9961 -82.7953 271° West 186 214 2,200 -726 Descending Indianapolis Center
Tue 07:18:50 PM 39.9997 -82.8517 275° West 151 174 1,300 -484 Descending Indianapolis Center
Tue 07:19:52 PM 40.0031 -82.8925 276° West 145 167 1,200 -97 Descending Indianapolis Center
Tue 07:21:00 PM 39.9980 -82.8920 180° South  Level Estimated

Login

Don't have an account? Register now (free) for customized features, flight alerts, and more!